Time;durP1;ratioP1;P1;durP2;ratioP2;P2;SDS_P1;SDS_P2;PMS_P1;PMS_P2;Temp;Humidity;BMP_temperature;BMP_pressure;BME280_temperature;BME280_humidity;BME280_pressure;Samples;Min_cycle;Max_cycle;Signal;HPM_P1;HPM_P2
2023/03/12 00:00:28;;;;;;;17.83;12.18;;;10.40;99.90;;;;;;5014407;28;20075;-60
2023/03/12 00:02:54;;;;;;;16.53;11.93;;;10.40;99.90;;;;;;5029021;28;20022;-61
2023/03/12 00:05:21;;;;;;;18.15;10.95;;;10.30;99.90;;;;;;5028734;28;20030;-60
2023/03/12 00:07:47;;;;;;;14.35;10.18;;;10.40;99.90;;;;;;5028461;28;20524;-60
2023/03/12 00:10:13;;;;;;;16.55;10.82;;;10.50;99.90;;;;;;5027853;28;20123;-60
2023/03/12 00:12:39;;;;;;;14.93;10.82;;;10.60;99.90;;;;;;5033211;28;20525;-61
2023/03/12 00:15:06;;;;;;;17.20;10.20;;;10.50;99.90;;;;;;5047538;28;20031;-60
2023/03/12 00:17:31;;;;;;;14.60;9.90;;;10.60;99.90;;;;;;5037169;28;20045;-61
2023/03/12 00:19:57;;;;;;;15.77;10.27;;;10.50;99.90;;;;;;5013781;28;20034;-60
2023/03/12 00:22:24;;;;;;;13.38;8.75;;;10.60;99.90;;;;;;5028896;28;20037;-60
2023/03/12 00:24:54;;;;;;;11.43;6.65;;;10.60;99.90;;;;;;5028879;28;20484;-61
2023/03/12 00:27:21;;;;;;;14.50;6.43;;;10.50;99.90;;;;;;5029467;28;20025;-61
2023/03/12 00:29:47;;;;;;;10.00;6.60;;;10.50;99.90;;;;;;5029544;28;20504;-61
2023/03/12 00:32:13;;;;;;;10.52;6.80;;;10.40;99.90;;;;;;5024821;28;20042;-62
2023/03/12 00:34:39;;;;;;;11.93;6.13;;;10.50;99.90;;;;;;5021282;28;20119;-62
2023/03/12 00:37:05;;;;;;;12.80;5.90;;;10.40;99.90;;;;;;5013099;28;20080;-62
2023/03/12 00:39:31;;;;;;;10.23;5.10;;;10.40;99.90;;;;;;5028272;28;20025;-61
2023/03/12 00:41:57;;;;;;;6.75;4.63;;;10.40;99.90;;;;;;5028946;28;20041;-62
2023/03/12 00:44:22;;;;;;;9.13;5.20;;;10.40;99.90;;;;;;5028789;28;20033;-62
2023/03/12 00:46:48;;;;;;;8.23;4.60;;;10.50;99.90;;;;;;5028888;28;20795;-62
2023/03/12 00:49:13;;;;;;;14.67;4.77;;;10.40;99.90;;;;;;5029232;28;20049;-61
2023/03/12 00:51:39;;;;;;;6.87;4.53;;;10.30;99.90;;;;;;5043749;28;20025;-61
2023/03/12 00:54:04;;;;;;;9.40;4.53;;;10.30;99.90;;;;;;5048510;28;20064;-61
2023/03/12 00:56:30;;;;;;;10.33;4.77;;;10.20;99.90;;;;;;5041664;28;20411;-61
2023/03/12 00:58:56;;;;;;;8.70;5.78;;;10.20;99.90;;;;;;5028564;28;20118;-60
2023/03/12 01:01:22;;;;;;;8.57;5.07;;;10.10;99.90;;;;;;5028634;28;20443;-60
2023/03/12 01:03:50;;;;;;;9.70;4.97;;;10.20;99.90;;;;;;5029007;28;20037;-61
2023/03/12 01:06:16;;;;;;;6.47;4.30;;;10.20;99.90;;;;;;5027884;28;20098;-61
2023/03/12 01:08:42;;;;;;;8.30;3.92;;;10.30;99.90;;;;;;5029252;28;20025;-61
2023/03/12 01:11:14;;;;;;;8.77;4.80;;;10.30;99.90;;;;;;5028893;28;20033;-61
2023/03/12 01:13:40;;;;;;;7.93;4.78;;;10.40;99.90;;;;;;5028950;28;20042;-61
2023/03/12 01:16:06;;;;;;;8.77;4.93;;;10.40;99.90;;;;;;5028897;28;20022;-60
2023/03/12 01:18:32;;;;;;;8.68;5.20;;;10.50;99.90;;;;;;5027231;28;20433;-61
2023/03/12 01:20:58;;;;;;;8.50;4.90;;;10.40;99.90;;;;;;5027379;28;20033;-61
2023/03/12 01:23:23;;;;;;;6.70;4.82;;;10.50;99.90;;;;;;5019522;28;20033;-61
2023/03/12 01:25:50;;;;;;;12.02;5.18;;;10.50;99.90;;;;;;5026867;28;20044;-60
2023/03/12 01:28:16;;;;;;;6.30;5.15;;;10.60;99.90;;;;;;5018096;28;20108;-60
2023/03/12 01:30:42;;;;;;;7.82;4.78;;;10.60;99.90;;;;;;5009551;28;20321;-61
2023/03/12 01:33:08;;;;;;;7.67;4.93;;;10.50;99.90;;;;;;5028279;28;20614;-61
2023/03/12 01:35:38;;;;;;;13.00;6.93;;;10.50;99.90;;;;;;5028593;28;20041;-61
2023/03/12 01:38:05;;;;;;;15.68;9.52;;;10.40;99.90;;;;;;5028086;28;20033;-61
2023/03/12 01:40:34;;;;;;;17.30;10.45;;;10.40;99.90;;;;;;5028417;28;20025;-61
2023/03/12 01:43:26;;;;;;;16.70;11.40;;;10.50;99.90;;;;;;5028326;28;20040;-60
2023/03/12 01:46:31;;;;;;;17.02;10.50;;;10.40;99.90;;;;;;5028041;28;20152;-61
2023/03/12 01:49:20;;;;;;;17.27;10.50;;;10.40;99.90;;;;;;5027416;28;20413;-62
2023/03/12 01:52:35;;;;;;;18.23;12.15;;;10.40;99.90;;;;;;5028439;28;20083;-61
2023/03/12 01:55:08;;;;;;;19.92;12.32;;;10.40;99.90;;;;;;4966426;28;20105;-61
2023/03/12 01:57:38;;;;;;;15.60;11.50;;;10.40;99.90;;;;;;4965991;28;20148;-61
2023/03/12 02:00:12;;;;;;;18.75;11.70;;;10.40;99.90;;;;;;4991469;28;20034;-61
2023/03/12 02:02:40;;;;;;;14.85;10.43;;;10.40;99.90;;;;;;5023717;28;20549;-61
2023/03/12 02:05:17;;;;;;;17.58;12.00;;;10.40;99.90;;;;;;5027728;28;20021;-61
2023/03/12 02:07:43;;;;;;;18.00;12.40;;;10.40;99.90;;;;;;5027682;28;20021;-61
2023/03/12 02:10:10;;;;;;;23.20;14.30;;;10.40;99.90;;;;;;5027715;28;20151;-61
2023/03/12 02:12:35;;;;;;;20.25;14.40;;;10.30;99.90;;;;;;5022194;28;20036;-61
2023/03/12 02:15:02;;;;;;;20.60;14.63;;;10.30;99.90;;;;;;5021197;28;20049;-60
2023/03/12 02:17:28;;;;;;;22.40;14.30;;;10.30;99.90;;;;;;5024938;28;20058;-60
2023/03/12 02:20:00;;;;;;;22.85;15.55;;;10.30;99.90;;;;;;5027945;28;20394;-61
2023/03/12 02:22:26;;;;;;;22.55;15.27;;;10.40;99.90;;;;;;5027732;28;20787;-61
2023/03/12 02:25:05;;;;;;;22.27;15.80;;;10.30;99.90;;;;;;5027445;28;20096;-61
2023/03/12 02:27:33;;;;;;;23.92;15.30;;;10.40;99.90;;;;;;5027351;28;20401;-61
2023/03/12 02:30:00;;;;;;;25.17;16.60;;;10.40;99.90;;;;;;5026698;28;20029;-60
2023/03/12 02:32:31;;;;;;;23.20;15.52;;;10.30;99.90;;;;;;5026932;28;20426;-60
2023/03/12 02:34:59;;;;;;;23.08;16.00;;;10.20;99.90;;;;;;5026804;28;20041;-62
2023/03/12 02:37:24;;;;;;;26.20;16.38;;;10.10;99.90;;;;;;5026963;28;20096;-61
2023/03/12 02:40:04;;;;;;;19.53;14.20;;;10.10;99.90;;;;;;5027390;28;20554;-62
2023/03/12 02:42:30;;;;;;;21.30;14.95;;;10.20;99.90;;;;;;5006958;28;20057;-62
2023/03/12 02:44:57;;;;;;;23.15;15.70;;;10.30;99.90;;;;;;5007937;28;20068;-62
2023/03/12 02:47:22;;;;;;;24.60;15.75;;;10.30;99.90;;;;;;5010607;28;20140;-62
2023/03/12 02:49:48;;;;;;;21.97;15.73;;;10.30;99.90;;;;;;5027456;28;20506;-62
2023/03/12 02:52:14;;;;;;;25.43;16.37;;;10.20;99.90;;;;;;5027009;28;20040;-62
2023/03/12 02:54:40;;;;;;;23.27;15.40;;;10.10;99.90;;;;;;5026524;28;20386;-61
2023/03/12 02:57:06;;;;;;;27.00;15.30;;;10.00;99.90;;;;;;5026614;28;20021;-62
2023/03/12 02:59:32;;;;;;;21.43;14.57;;;10.00;99.90;;;;;;5029979;28;20040;-62
2023/03/12 03:01:59;;;;;;;21.73;12.37;;;9.90;99.90;;;;;;5027182;28;20061;-62
2023/03/12 03:04:28;;;;;;;21.42;12.20;;;9.90;99.90;;;;;;5019959;28;20197;-61
2023/03/12 03:06:54;;;;;;;21.08;12.43;;;10.00;99.90;;;;;;5021617;28;20132;-62
2023/03/12 03:09:21;;;;;;;14.07;10.00;;;9.90;99.90;;;;;;5019088;28;20390;-61
2023/03/12 03:11:47;;;;;;;;;;;9.90;99.90;;;;;;5013780;28;20091;-60
2023/03/12 03:14:13;;;;;;;12.43;7.43;;;9.90;99.90;;;;;;5055923;28;20416;-61
2023/03/12 03:16:39;;;;;;;13.30;7.57;;;9.90;99.90;;;;;;5023756;28;20026;-60
2023/03/12 03:19:05;;;;;;;14.73;7.15;;;10.00;99.90;;;;;;5050870;28;20410;-61
2023/03/12 03:21:31;;;;;;;;;;;9.90;99.90;;;;;;5050258;28;20067;-61
2023/03/12 03:23:57;;;;;;;11.25;6.65;;;9.90;99.90;;;;;;5050474;28;20388;-61
2023/03/12 03:26:23;;;;;;;14.10;6.70;;;9.90;99.90;;;;;;5051148;28;20104;-61
2023/03/12 03:28:49;;;;;;;;;;;10.00;99.90;;;;;;5051417;28;20090;-61
2023/03/12 03:31:15;;;;;;;12.77;6.78;;;10.00;99.90;;;;;;5044852;28;20314;-61
2023/03/12 03:33:41;;;;;;;9.82;6.47;;;9.80;99.90;;;;;;5062292;28;20029;-60
2023/03/12 03:36:08;;;;;;;9.57;6.20;;;9.80;99.90;;;;;;5030213;28;20390;-61
2023/03/12 03:38:34;;;;;;;12.13;5.88;;;9.80;99.90;;;;;;5030369;28;20022;-60
2023/03/12 03:40:59;;;;;;;11.23;6.67;;;9.90;99.90;;;;;;5030366;28;20505;-61
2023/03/12 03:43:25;;;;;;;9.87;6.27;;;10.00;99.90;;;;;;5030171;28;20109;-61
2023/03/12 03:46:03;;;;;;;8.20;5.55;;;10.00;99.90;;;;;;5032610;28;20667;-61
2023/03/12 03:48:29;;;;;;;8.27;5.57;;;10.00;99.90;;;;;;5049397;28;20039;-60
2023/03/12 03:51:00;;;;;;;9.48;5.28;;;9.90;99.90;;;;;;5049844;28;20021;-61
2023/03/12 03:53:25;;;;;;;8.48;4.90;;;9.90;99.90;;;;;;5019200;28;20049;-61
2023/03/12 03:55:51;;;;;;;7.70;4.43;;;10.00;99.90;;;;;;5028289;28;20041;-61
2023/03/12 03:58:16;;;;;;;9.50;4.83;;;9.90;99.90;;;;;;5010193;28;20041;-62
2023/03/12 04:00:45;;;;;;;7.97;4.97;;;10.00;99.90;;;;;;5016945;28;20040;-62
2023/03/12 04:03:12;;;;;;;8.73;4.68;;;10.00;99.90;;;;;;5029566;28;20029;-62
2023/03/12 04:05:38;;;;;;;8.15;4.22;;;10.00;99.90;;;;;;5029823;28;20025;-62
2023/03/12 04:08:05;;;;;;;6.70;3.67;;;10.00;99.90;;;;;;5029646;28;20095;-61
2023/03/12 04:10:31;;;;;;;6.95;3.83;;;10.00;99.90;;;;;;5028881;28;20041;-61
2023/03/12 04:12:57;;;;;;;7.97;4.30;;;10.00;99.90;;;;;;5046632;28;20029;-61
2023/03/12 04:15:22;;;;;;;7.30;3.95;;;10.00;99.90;;;;;;5050129;28;20041;-61
2023/03/12 04:17:48;;;;;;;6.35;3.55;;;10.00;99.90;;;;;;5049748;28;20025;-62
2023/03/12 04:20:14;;;;;;;16.73;9.70;;;10.10;99.90;;;;;;5049901;28;20477;-61
2023/03/12 04:22:39;;;;;;;19.10;9.73;;;10.10;99.90;;;;;;5036320;28;20025;-61
2023/03/12 04:25:06;;;;;;;13.25;9.18;;;10.10;99.90;;;;;;5029567;28;20544;-61
2023/03/12 04:27:32;;;;;;;17.95;9.38;;;10.10;99.90;;;;;;5028817;28;20087;-61
2023/03/12 04:29:58;;;;;;;18.80;10.40;;;10.10;99.90;;;;;;5028901;28;20021;-61
2023/03/12 04:32:23;;;;;;;23.00;15.07;;;10.10;99.90;;;;;;5028968;28;20578;-60
2023/03/12 04:34:49;;;;;;;20.03;13.07;;;10.00;99.90;;;;;;5029035;28;20044;-61
2023/03/12 04:37:14;;;;;;;20.60;12.93;;;10.00;99.90;;;;;;5029088;28;20024;-61
2023/03/12 04:39:41;;;;;;;21.07;14.53;;;10.10;99.90;;;;;;5029594;28;20104;-61
2023/03/12 04:42:08;;;;;;;22.95;14.88;;;10.20;99.90;;;;;;5026030;28;20030;-61
2023/03/12 04:44:34;;;;;;;24.95;14.60;;;10.20;99.90;;;;;;5013415;28;20030;-60
2023/03/12 04:46:59;;;;;;;26.47;15.00;;;10.10;99.90;;;;;;5025370;28;20026;-62
2023/03/12 04:49:25;;;;;;;29.87;15.07;;;10.10;99.90;;;;;;5009275;28;20105;-62
2023/03/12 04:51:51;;;;;;;24.67;14.00;;;10.00;99.90;;;;;;5009175;28;20029;-62
2023/03/12 04:54:16;;;;;;;24.40;15.30;;;10.00;99.90;;;;;;5009155;28;20301;-62
2023/03/12 04:56:42;;;;;;;23.77;13.37;;;10.00;99.90;;;;;;5009349;28;20117;-62
2023/03/12 04:59:08;;;;;;;26.87;17.43;;;10.00;99.90;;;;;;5007566;28;20315;-61
2023/03/12 05:01:36;;;;;;;29.40;17.33;;;10.00;99.90;;;;;;5016815;28;20032;-61
2023/03/12 05:04:02;;;;;;;30.70;18.00;;;10.00;99.90;;;;;;5029028;28;20433;-62
2023/03/12 05:06:28;;;;;;;28.13;17.75;;;10.00;99.90;;;;;;5026290;28;20029;-62
2023/03/12 05:08:54;;;;;;;30.50;17.08;;;10.00;99.90;;;;;;5020826;28;20541;-61
2023/03/12 05:11:20;;;;;;;25.83;16.77;;;10.00;99.90;;;;;;5033921;28;20492;-61
2023/03/12 05:13:46;;;;;;;32.67;19.08;;;9.90;99.90;;;;;;5028840;28;20029;-61
2023/03/12 05:16:12;;;;;;;32.47;18.27;;;9.90;99.90;;;;;;5029101;28;20052;-61
2023/03/12 05:18:38;;;;;;;;;;;9.90;99.90;;;;;;5029153;28;20555;-61
2023/03/12 05:21:07;;;;;;;33.17;18.63;;;9.80;99.90;;;;;;5027631;28;19909;-62
2023/03/12 05:23:33;;;;;;;31.45;18.73;;;9.90;99.90;;;;;;5026837;28;20452;-60
2023/03/12 05:25:58;;;;;;;33.83;19.00;;;9.80;99.90;;;;;;5028632;28;20037;-60
2023/03/12 05:28:27;;;;;;;28.70;17.50;;;9.90;99.90;;;;;;5028525;28;20048;-61
2023/03/12 05:31:00;;;;;;;33.58;18.10;;;9.90;99.90;;;;;;5026874;28;20497;-60
2023/03/12 05:33:27;;;;;;;31.20;18.63;;;9.80;99.90;;;;;;5021287;28;20037;-60
2023/03/12 05:35:53;;;;;;;37.00;18.85;;;9.70;99.90;;;;;;5027584;28;20087;-61
2023/03/12 05:38:19;;;;;;;35.25;18.60;;;9.70;99.90;;;;;;5016068;28;20026;-61
2023/03/12 05:40:53;;;;;;;34.45;19.60;;;9.60;99.90;;;;;;5040179;28;20040;-61
2023/03/12 05:43:19;;;;;;;63.83;22.15;;;9.50;99.90;;;;;;5028332;28;20021;-60
2023/03/12 05:45:44;;;;;;;39.03;21.00;;;9.40;99.90;;;;;;5020717;28;20034;-60
2023/03/12 05:48:10;;;;;;;36.33;19.63;;;9.30;99.90;;;;;;5047141;28;20048;-61
2023/03/12 05:50:35;;;;;;;38.83;19.03;;;9.40;99.90;;;;;;5024830;28;20056;-61
2023/03/12 05:53:01;;;;;;;57.33;21.73;;;9.30;99.90;;;;;;5025489;28;20410;-61
2023/03/12 05:55:27;;;;;;;34.20;19.80;;;9.10;99.90;;;;;;5024809;28;20045;-61
2023/03/12 05:57:52;;;;;;;40.17;20.50;;;9.10;99.90;;;;;;5025528;28;20029;-61
2023/03/12 06:00:19;;;;;;;36.07;19.10;;;9.10;99.90;;;;;;5023979;28;20196;-61
2023/03/12 06:02:45;;;;;;;36.90;19.55;;;9.10;99.90;;;;;;5025528;28;20444;-60
2023/03/12 06:05:11;;;;;;;31.75;17.17;;;9.20;99.90;;;;;;5025568;28;20120;-61
2023/03/12 06:07:37;;;;;;;31.17;18.15;;;9.20;99.90;;;;;;5025492;28;20091;-61
2023/03/12 06:10:03;;;;;;;40.53;19.85;;;9.30;99.90;;;;;;5022573;28;20461;-61
2023/03/12 06:12:29;;;;;;;39.53;20.42;;;9.30;99.90;;;;;;5025793;28;20029;-61
2023/03/12 06:14:57;;;;;;;41.50;21.30;;;9.40;99.90;;;;;;5026377;28;20581;-59
2023/03/12 06:17:23;;;;;;;52.97;22.00;;;9.50;99.90;;;;;;5021972;28;20030;-60
2023/03/12 06:19:52;;;;;;;44.95;20.35;;;9.60;99.90;;;;;;5037864;28;20044;-61
2023/03/12 06:22:18;;;;;;;60.15;23.52;;;9.60;99.90;;;;;;5026051;28;20108;-61
2023/03/12 06:24:46;;;;;;;53.42;20.60;;;9.70;99.90;;;;;;5024402;28;20036;-60
2023/03/12 06:27:12;;;;;;;67.88;24.27;;;9.70;99.90;;;;;;5031920;28;20032;-59
2023/03/12 06:29:38;;;;;;;62.45;23.13;;;9.80;99.90;;;;;;5025689;28;20402;-61
2023/03/12 06:32:04;;;;;;;68.27;25.60;;;9.70;99.90;;;;;;5025679;28;20073;-60
2023/03/12 06:34:30;;;;;;;80.27;23.47;;;9.80;99.90;;;;;;5025835;28;20095;-61
2023/03/12 06:36:55;;;;;;;78.90;26.67;;;9.80;99.90;;;;;;5026011;28;20276;-60
2023/03/12 06:39:21;;;;;;;109.50;25.30;;;10.00;99.90;;;;;;5024038;28;20049;-61
2023/03/12 06:41:46;;;;;;;95.40;23.23;;;10.10;99.90;;;;;;5024210;28;20845;-61
2023/03/12 06:44:12;;;;;;;78.53;22.70;;;10.10;99.90;;;;;;5025014;28;20041;-61
2023/03/12 06:46:38;;;;;;;81.10;23.97;;;10.00;99.90;;;;;;5025334;28;20033;-59
2023/03/12 06:49:04;;;;;;;114.33;25.53;;;10.00;99.90;;;;;;5026094;28;20034;-60
2023/03/12 06:51:30;;;;;;;57.80;22.90;;;9.90;99.90;;;;;;5026245;28;20657;-61
2023/03/12 06:53:55;;;;;;;52.37;22.93;;;10.00;99.90;;;;;;5025685;28;20033;-61
2023/03/12 06:56:21;;;;;;;24.07;12.60;;;10.10;99.90;;;;;;5022247;28;20033;-60
2023/03/12 06:58:47;;;;;;;22.40;12.73;;;9.90;99.90;;;;;;5026567;28;20041;-60
2023/03/12 07:01:13;;;;;;;23.65;13.10;;;10.10;99.90;;;;;;5025496;28;20082;-61
2023/03/12 07:03:39;;;;;;;11.55;7.15;;;10.20;99.90;;;;;;5023158;28;20045;-61
2023/03/12 07:06:12;;;;;;;13.37;6.93;;;10.20;99.90;;;;;;5025761;28;20026;-61
2023/03/12 07:08:38;;;;;;;17.13;6.47;;;10.20;99.90;;;;;;5026195;28;20068;-62
2023/03/12 07:11:03;;;;;;;8.07;5.60;;;10.30;99.90;;;;;;5025934;28;20095;-61
2023/03/12 07:13:30;;;;;;;8.47;5.20;;;10.30;99.90;;;;;;5025771;28;20041;-60
2023/03/12 07:15:55;;;;;;;11.15;5.18;;;10.40;99.90;;;;;;5025270;28;20441;-62
2023/03/12 07:18:21;;;;;;;7.60;4.23;;;11.60;99.90;;;;;;5023995;28;20026;-61
2023/03/12 07:20:46;;;;;;;6.70;4.87;;;12.70;99.90;;;;;;5020165;28;20541;-62
2023/03/12 07:23:12;;;;;;;9.47;5.57;;;12.20;99.90;;;;;;5018140;28;20319;-60
2023/03/12 07:25:40;;;;;;;7.20;4.57;;;11.90;99.90;;;;;;5024972;28;20033;-64
2023/03/12 07:28:07;;;;;;;8.77;4.63;;;12.50;99.90;;;;;;5025165;28;20036;-62
2023/03/12 07:30:33;;;;;;;;;;;13.10;99.90;;;;;;5025342;28;20025;-62
2023/03/12 07:33:00;;;;;;;7.70;4.00;;;12.40;99.90;;;;;;5025496;28;19924;-61
2023/03/12 07:35:26;;;;;;;6.80;4.07;;;13.00;99.90;;;;;;5025629;28;20382;-61
2023/03/12 07:37:52;;;;;;;9.27;4.73;;;12.40;99.90;;;;;;5025453;28;20036;-62
2023/03/12 07:40:17;;;;;;;6.93;3.83;;;12.20;99.90;;;;;;5025720;28;20037;-63
2023/03/12 07:42:43;;;;;;;9.37;4.67;;;12.10;99.90;;;;;;5025377;28;20145;-59
2023/03/12 07:45:09;;;;;;;7.10;3.83;;;12.40;99.90;;;;;;5027164;28;20493;-59
2023/03/12 07:47:34;;;;;;;5.80;4.13;;;14.30;99.90;;;;;;5026587;28;20041;-60
2023/03/12 07:50:00;;;;;;;7.50;3.77;;;14.80;99.90;;;;;;5026646;28;20478;-60
2023/03/12 07:52:26;;;;;;;5.93;3.65;;;13.60;99.90;;;;;;5028175;28;20434;-62
2023/03/12 07:54:53;;;;;;;5.57;3.67;;;13.40;99.90;;;;;;5027537;28;20053;-62
2023/03/12 07:57:19;;;;;;;7.50;3.90;;;14.80;99.90;;;;;;5029022;28;20064;-60
2023/03/12 07:59:45;;;;;;;20.45;12.45;;;17.00;99.90;;;;;;5029027;28;20037;-60
2023/03/12 08:02:11;;;;;;;23.35;14.07;;;18.30;99.90;;;;;;5027285;28;20037;-59
2023/03/12 08:04:37;;;;;;;22.10;13.50;;;17.60;99.90;;;;;;5028903;28;20370;-63
2023/03/12 08:07:03;;;;;;;22.80;13.93;;;15.70;99.90;;;;;;5027256;28;20386;-63
2023/03/12 08:09:28;;;;;;;23.75;13.98;;;14.90;99.90;;;;;;5028646;28;20026;-63
2023/03/12 08:11:54;;;;;;;18.20;11.90;;;14.50;99.90;;;;;;5028437;28;20061;-61
2023/03/12 08:14:19;;;;;;;17.60;11.50;;;14.00;99.90;;;;;;5026965;28;20034;-62
2023/03/12 08:16:45;;;;;;;17.63;12.57;;;14.10;99.90;;;;;;5027721;28;20026;-61
2023/03/12 08:19:10;;;;;;;21.23;13.90;;;14.20;99.90;;;;;;5028442;28;20104;-59
2023/03/12 08:21:36;;;;;;;21.47;13.10;;;14.10;99.90;;;;;;5027110;28;20033;-60
2023/03/12 08:24:02;;;;;;;23.77;11.97;;;14.40;99.90;;;;;;5028192;28;20034;-62
2023/03/12 08:26:28;;;;;;;17.88;11.70;;;14.40;99.90;;;;;;5028099;28;20037;-60
2023/03/12 08:28:54;;;;;;;14.43;10.05;;;14.40;99.90;;;;;;5024591;28;20033;-60
2023/03/12 08:31:20;;;;;;;19.90;11.47;;;14.50;99.90;;;;;;5027183;28;20130;-61
2023/03/12 08:33:46;;;;;;;15.88;10.35;;;14.70;99.90;;;;;;5026313;28;20237;-61
2023/03/12 08:36:12;;;;;;;61.05;36.38;;;14.80;99.90;;;;;;5027918;28;20029;-60
2023/03/12 08:38:38;;;;;;;39.60;25.27;;;14.80;99.90;;;;;;5027232;28;20037;-60
2023/03/12 08:41:04;;;;;;;31.57;21.30;;;14.80;99.90;;;;;;5027582;28;20497;-60
2023/03/12 08:43:29;;;;;;;50.78;28.27;;;15.40;99.90;;;;;;5027321;28;20024;-61
2023/03/12 08:46:01;;;;;;;24.20;15.30;;;15.70;99.90;;;;;;5027345;28;20052;-60
2023/03/12 08:48:28;;;;;;;16.63;10.30;;;15.30;99.90;;;;;;5026774;28;20286;-60
2023/03/12 08:50:55;;;;;;;20.55;12.70;;;15.00;99.90;;;;;;5023674;28;20042;-61
2023/03/12 08:53:21;;;;;;;23.38;15.45;;;14.80;99.90;;;;;;5018554;28;20044;-61
2023/03/12 08:55:47;;;;;;;28.70;11.60;;;14.60;99.90;;;;;;5023619;28;20406;-61
2023/03/12 08:58:12;;;;;;;18.97;11.00;;;14.50;99.90;;;;;;5026371;28;20025;-61
2023/03/12 09:00:38;;;;;;;18.40;10.90;;;14.20;99.90;;;;;;5025439;28;20453;-64
2023/03/12 09:03:04;;;;;;;16.00;10.90;;;14.30;99.90;;;;;;5027243;28;20029;-60
2023/03/12 09:05:30;;;;;;;13.67;9.90;;;14.30;99.90;;;;;;5027765;28;20061;-61
2023/03/12 09:07:56;;;;;;;13.35;6.93;;;14.30;99.90;;;;;;5027502;28;20044;-61
2023/03/12 09:10:22;;;;;;;14.45;9.15;;;14.20;99.90;;;;;;5026495;28;20132;-61
2023/03/12 09:12:48;;;;;;;13.35;7.65;;;14.20;99.90;;;;;;5023744;28;20029;-64
2023/03/12 09:15:13;;;;;;;13.23;7.20;;;14.30;99.90;;;;;;5026013;28;20045;-64
2023/03/12 09:17:39;;;;;;;8.77;5.97;;;14.10;99.90;;;;;;5026680;28;20059;-64
2023/03/12 09:20:07;;;;;;;7.97;5.43;;;14.10;99.90;;;;;;5024331;28;20512;-61
2023/03/12 09:22:35;;;;;;;9.15;3.40;;;14.10;99.90;;;;;;5026030;28;20517;-64
2023/03/12 09:25:03;;;;;;;7.35;3.50;;;14.20;99.90;;;;;;5027119;28;20032;-64
2023/03/12 09:27:29;;;;;;;7.70;4.22;;;14.20;99.90;;;;;;5022103;28;20107;-63
2023/03/12 09:29:54;;;;;;;4.15;2.75;;;14.00;99.90;;;;;;5025655;28;20025;-63
2023/03/12 09:32:20;;;;;;;6.03;3.90;;;14.00;99.90;;;;;;5025738;28;20512;-64
2023/03/12 09:34:45;;;;;;;5.63;3.63;;;13.80;99.90;;;;;;5024870;28;20100;-62
2023/03/12 09:37:11;;;;;;;4.43;3.10;;;13.90;99.90;;;;;;5025468;28;20482;-63
2023/03/12 09:39:37;;;;;;;9.02;3.28;;;13.80;99.90;;;;;;5023570;28;20286;-63
2023/03/12 09:42:05;;;;;;;10.50;3.60;;;13.80;99.90;;;;;;5024895;28;20133;-63
2023/03/12 09:44:34;;;;;;;6.22;3.05;;;13.50;99.90;;;;;;5025925;28;20554;-63
2023/03/12 09:47:06;;;;;;;3.33;1.60;;;13.30;99.90;;;;;;5026268;28;20032;-62
2023/03/12 09:49:45;;;;;;;8.65;1.95;;;13.00;99.90;;;;;;5026049;28;20549;-63
2023/03/12 09:52:26;;;;;;;5.40;2.33;;;12.80;99.90;;;;;;5026196;28;20022;-63
2023/03/12 09:55:14;;;;;;;9.25;2.40;;;12.80;99.90;;;;;;5022416;28;20465;-63
2023/03/12 09:57:39;;;;;;;;;;;12.70;99.90;;;;;;5025901;28;20036;-63
2023/03/12 10:00:11;;;;;;;5.70;1.83;;;12.70;99.90;;;;;;5025888;28;19912;-63
2023/03/12 10:03:01;;;;;;;10.25;2.30;;;12.70;99.90;;;;;;5022105;28;20095;-64
2023/03/12 10:05:57;;;;;;;11.02;2.13;;;12.70;99.90;;;;;;5020832;28;20021;-61
2023/03/12 10:08:31;;;;;;;10.93;2.22;;;13.00;99.90;;;;;;5023563;28;20160;-62
2023/03/12 10:11:22;;;;;;;12.55;2.70;;;12.90;99.90;;;;;;5023069;28;20524;-61
2023/03/12 10:13:56;;;;;;;11.75;2.55;;;12.90;99.90;;;;;;5021748;28;20034;-65
2023/03/12 10:16:30;;;;;;;19.67;4.05;;;13.10;99.90;;;;;;5024071;28;20405;-61
2023/03/12 10:19:07;;;;;;;10.57;1.98;;;13.40;99.90;;;;;;5021907;28;20034;-62
2023/03/12 10:21:54;;;;;;;13.45;2.85;;;13.70;99.90;;;;;;5017402;28;20604;-62
2023/03/12 10:24:53;;;;;;;18.17;3.13;;;14.10;99.90;;;;;;5022407;28;20033;-63
2023/03/12 10:27:23;;;;;;;14.20;3.47;;;14.30;99.90;;;;;;5025061;28;20652;-66
2023/03/12 10:29:51;;;;;;;13.30;2.95;;;14.50;99.90;;;;;;5023378;28;20033;-64
2023/03/12 10:32:27;;;;;;;19.40;3.20;;;14.80;99.90;;;;;;5015610;28;20083;-64
2023/03/12 10:34:59;;;;;;;19.05;3.65;;;14.90;99.90;;;;;;5021025;28;20045;-66
2023/03/12 10:37:38;;;;;;;17.30;3.28;;;14.90;99.90;;;;;;5024104;28;20025;-69
2023/03/12 10:40:04;;;;;;;17.83;2.97;;;14.90;99.90;;;;;;5021237;28;20033;-65
2023/03/12 10:42:30;;;;;;;14.85;3.38;;;15.20;99.90;;;;;;5024698;28;20013;-65
2023/03/12 10:45:08;;;;;;;12.80;2.63;;;15.50;99.90;;;;;;5022626;28;20074;-64
2023/03/12 10:47:36;;;;;;;18.08;4.32;;;16.00;99.90;;;;;;5019285;28;20052;-64
2023/03/12 10:50:21;;;;;;;14.38;5.13;;;16.20;99.90;;;;;;5024409;28;20030;-65
2023/03/12 10:52:49;;;;;;;13.13;3.67;;;16.80;99.90;;;;;;5023189;28;20030;-62
2023/03/12 10:55:20;;;;;;;16.58;3.03;;;16.70;99.90;;;;;;5008344;28;20606;-65
2023/03/12 10:57:47;;;;;;;12.43;2.95;;;16.20;99.90;;;;;;5026173;28;20446;-62
2023/03/12 11:00:19;;;;;;;10.68;2.78;;;16.30;99.90;;;;;;5020829;28;20389;-60
2023/03/12 11:02:46;;;;;;;13.32;3.60;;;16.40;99.90;;;;;;5025364;28;20642;-64
2023/03/12 11:05:25;;;;;;;14.85;4.00;;;16.40;99.90;;;;;;5026360;28;20040;-63
2023/03/12 11:07:51;;;;;;;10.43;2.45;;;16.60;99.90;;;;;;5027597;28;20029;-61
2023/03/12 11:10:39;;;;;;;15.48;3.13;;;16.40;99.90;;;;;;5027427;28;20643;-64
2023/03/12 11:13:19;;;;;;;;;;;16.10;99.90;;;;;;5027015;28;20073;-61
2023/03/12 11:15:46;;;;;;;14.40;2.38;;;15.90;99.90;;;;;;5027376;28;19913;-61
2023/03/12 11:18:27;;;;;;;13.90;2.30;;;16.00;99.90;;;;;;5025567;28;20037;-61
2023/03/12 11:20:56;;;;;;;12.27;1.95;;;15.80;99.90;;;;;;5028117;28;20037;-61
2023/03/12 11:23:28;;;;;;;10.65;2.55;;;15.60;99.90;;;;;;5029976;28;20026;-61
2023/03/12 11:26:00;;;;;;;12.70;2.60;;;15.70;99.90;;;;;;5030891;28;20669;-64
2023/03/12 11:28:40;;;;;;;6.15;1.63;;;15.80;99.90;;;;;;5030369;28;20144;-64
2023/03/12 11:31:14;;;;;;;10.88;1.73;;;16.00;99.90;;;;;;5030323;28;20052;-64
2023/03/12 11:33:40;;;;;;;14.00;2.75;;;16.10;99.70;;;;;;5029823;28;20033;-65
2023/03/12 11:36:49;;;;;;;7.00;1.98;;;16.20;99.90;;;;;;5030359;28;20036;-65
2023/03/12 11:39:29;;;;;;;8.35;1.98;;;16.70;99.90;;;;;;4993063;28;20087;-64
2023/03/12 11:42:19;;;;;;;10.35;1.95;;;17.00;99.90;;;;;;5030543;28;20095;-63
2023/03/12 11:45:00;;;;;;;9.18;2.05;;;16.80;99.90;;;;;;5030400;28;20508;-65
2023/03/12 11:47:49;;;;;;;9.45;1.90;;;16.60;99.90;;;;;;5030714;28;20057;-64
2023/03/12 11:50:33;;;;;;;12.00;1.98;;;16.60;99.90;;;;;;5029868;28;20041;-64
2023/03/12 11:53:24;;;;;;;7.07;2.10;;;16.80;99.90;;;;;;5015360;28;20520;-64
2023/03/12 11:56:00;;;;;;;9.10;2.33;;;16.90;99.90;;;;;;5030581;28;20528;-62
2023/03/12 11:59:07;;;;;;;8.45;2.22;;;17.00;99.90;;;;;;5030227;28;20040;-65
2023/03/12 12:01:33;;;;;;;8.30;2.03;;;16.70;98.10;;;;;;5030249;28;20038;-65
2023/03/12 12:04:08;;;;;;;8.70;2.50;;;16.90;99.90;;;;;;5030277;28;20068;-63
2023/03/12 12:06:53;;;;;;;8.30;2.33;;;17.00;99.90;;;;;;5030354;28;20037;-65
2023/03/12 12:09:31;;;;;;;8.57;1.77;;;17.00;99.90;;;;;;5028980;28;20084;-62
2023/03/12 12:12:15;;;;;;;9.75;2.38;;;17.00;99.80;;;;;;5028715;28;20057;-65
2023/03/12 12:15:02;;;;;;;9.20;2.28;;;17.20;99.90;;;;;;5028043;28;20167;-65
2023/03/12 12:17:47;;;;;;;10.30;2.08;;;17.10;98.80;;;;;;5028001;28;20375;-65
2023/03/12 12:20:42;;;;;;;7.15;2.17;;;16.60;97.80;;;;;;5028561;28;20033;-65
2023/03/12 12:23:18;;;;;;;9.23;2.10;;;16.50;98.50;;;;;;5028631;28;20120;-65
2023/03/12 12:25:59;;;;;;;11.80;2.10;;;17.20;99.90;;;;;;5029880;28;20053;-62
2023/03/12 12:28:27;;;;;;;10.65;2.70;;;17.50;99.80;;;;;;5029451;28;20025;-61
2023/03/12 12:31:04;;;;;;;12.00;2.55;;;17.40;99.90;;;;;;5029364;28;20042;-65
2023/03/12 12:33:32;;;;;;;13.33;3.10;;;17.60;98.80;;;;;;5029694;28;20064;-65
2023/03/12 12:35:59;;;;;;;6.88;1.77;;;17.30;99.10;;;;;;5029778;28;20505;-65
2023/03/12 12:38:31;;;;;;;14.35;2.25;;;17.50;99.90;;;;;;5029999;28;20060;-65
2023/03/12 12:41:11;;;;;;;10.15;2.53;;;17.40;98.50;;;;;;5028067;28;20044;-64
2023/03/12 12:43:42;;;;;;;7.47;2.10;;;17.20;98.60;;;;;;5029448;28;20551;-64
2023/03/12 12:46:11;;;;;;;6.38;1.90;;;17.20;99.90;;;;;;5029667;28;20029;-65
2023/03/12 12:48:54;;;;;;;9.02;1.98;;;17.00;99.90;;;;;;5029203;28;20068;-64